createdAt,value
2022-10-05T00:01:39.090Z,3.47
2022-10-05T00:04:22.986Z,3.08
2022-10-05T00:07:02.205Z,3.10
2022-10-05T00:09:33.448Z,3.05
2022-10-05T00:12:12.775Z,3.63
2022-10-05T00:14:41.244Z,2.90
2022-10-05T00:17:17.931Z,2.67
2022-10-05T00:19:47.660Z,3.47
2022-10-05T00:22:22.084Z,3.13
2022-10-05T00:24:56.320Z,3.13
2022-10-05T00:27:28.055Z,3.30
2022-10-05T00:30:00.915Z,3.10
2022-10-05T00:32:29.193Z,3.13
2022-10-05T00:34:58.830Z,2.60
2022-10-05T00:37:27.081Z,3.17
2022-10-05T00:39:55.526Z,2.92
2022-10-05T00:42:59.015Z,2.95
2022-10-05T00:45:33.923Z,3.22
2022-10-05T00:48:17.447Z,3.17
2022-10-05T00:51:06.880Z,2.65
2022-10-05T00:54:08.320Z,3.25
2022-10-05T00:57:01.601Z,2.75
2022-10-05T01:00:00.619Z,2.92
2022-10-05T01:02:37.120Z,2.30
2022-10-05T01:05:24.830Z,2.80
2022-10-05T01:08:04.007Z,2.85
2022-10-05T01:10:45.370Z,2.58
2022-10-05T01:13:40.808Z,2.85
2022-10-05T01:16:35.440Z,2.60
2022-10-05T01:19:27.935Z,2.60
2022-10-05T01:22:06.455Z,2.53
2022-10-05T01:25:11.507Z,2.65
2022-10-05T01:27:41.630Z,2.55
2022-10-05T01:30:20.005Z,2.97
2022-10-05T01:33:06.726Z,2.83
2022-10-05T01:35:35.625Z,2.85
2022-10-05T01:38:37.770Z,3.00
2022-10-05T01:41:34.085Z,2.70
2022-10-05T01:44:25.605Z,2.47
2022-10-05T01:47:15.670Z,2.70
2022-10-05T01:49:59.370Z,2.67
2022-10-05T01:52:53.084Z,2.58
2022-10-05T01:55:31.347Z,2.40
2022-10-05T01:58:07.303Z,2.40
2022-10-05T02:00:59.588Z,2.47
2022-10-05T02:03:40.165Z,3.13
2022-10-05T02:06:22.405Z,3.00
2022-10-05T02:09:02.243Z,2.35
2022-10-05T02:11:30.725Z,2.70
2022-10-05T02:14:09.594Z,2.70
2022-10-05T02:16:44.483Z,2.92
2022-10-05T02:19:28.970Z,2.67
2022-10-05T02:22:13.450Z,2.50
2022-10-05T02:24:49.375Z,2.78
2022-10-05T02:27:25.554Z,2.80
2022-10-05T02:29:57.750Z,2.65
2022-10-05T02:32:33.925Z,2.60
2022-10-05T02:35:14.060Z,2.95
2022-10-05T02:38:10.531Z,2.47
2022-10-05T02:40:38.884Z,2.40
2022-10-05T02:43:28.940Z,3.05
2022-10-05T02:46:06.607Z,3.03
2022-10-05T02:49:00.613Z,2.80
2022-10-05T02:51:31.089Z,2.47
2022-10-05T02:54:14.240Z,2.50
2022-10-05T02:56:59.205Z,2.33
2022-10-05T02:59:39.680Z,2.80
2022-10-05T03:02:16.529Z,2.60
2022-10-05T03:04:50.400Z,2.70
2022-10-05T03:07:33.599Z,2.60
2022-10-05T03:10:27.035Z,2.92
2022-10-05T03:13:14.355Z,2.90
2022-10-05T03:16:01.105Z,2.70
2022-10-05T03:18:55.445Z,2.97
2022-10-05T03:21:42.886Z,3.00
2022-10-05T03:24:20.641Z,2.65
2022-10-05T03:27:16.770Z,2.80
2022-10-05T03:29:58.030Z,2.95
2022-10-05T03:32:43.466Z,2.85
2022-10-05T03:35:25.121Z,2.95
2022-10-05T03:38:18.512Z,2.50
2022-10-05T03:40:52.160Z,2.70
2022-10-05T03:43:48.141Z,2.78
2022-10-05T03:46:38.615Z,2.70
2022-10-05T03:49:18.095Z,2.67
2022-10-05T03:52:08.176Z,3.15
2022-10-05T03:54:51.607Z,2.83
2022-10-05T03:57:27.045Z,2.88
2022-10-05T04:00:07.526Z,2.70
2022-10-05T04:02:41.893Z,3.03
2022-10-05T04:07:47.824Z,2.70
2022-10-05T04:10:41.720Z,3.13
2022-10-05T04:13:28.375Z,3.45
2022-10-05T04:16:24.529Z,2.97
2022-10-05T04:18:55.520Z,2.65
2022-10-05T04:21:37.301Z,3.08
2022-10-05T04:24:13.505Z,3.03
2022-10-05T04:27:08.905Z,3.13
2022-10-05T04:29:54.601Z,3.10
2022-10-05T04:32:34.858Z,3.03
2022-10-05T04:35:30.719Z,2.83
2022-10-05T04:38:36.051Z,2.70
2022-10-05T04:41:23.880Z,2.30
2022-10-05T04:44:22.245Z,2.83
2022-10-05T04:47:05.286Z,2.40
2022-10-05T04:49:51.846Z,2.65
2022-10-05T04:52:56.457Z,2.60
2022-10-05T04:55:43.182Z,3.00
2022-10-05T04:58:38.854Z,2.78
2022-10-05T05:01:30.880Z,2.90
2022-10-05T05:04:12.572Z,2.72
2022-10-05T05:07:12.165Z,2.63
2022-10-05T05:10:01.205Z,2.75
2022-10-05T05:12:29.443Z,2.90
2022-10-05T05:15:18.410Z,3.17
2022-10-05T05:17:56.165Z,2.53
2022-10-05T05:20:38.568Z,2.53
2022-10-05T05:23:40.802Z,2.63
2022-10-05T05:26:47.851Z,3.03
2022-10-05T05:29:44.013Z,2.65
2022-10-05T05:32:30.134Z,3.35
2022-10-05T05:35:20.159Z,2.70
2022-10-05T05:38:19.470Z,2.60
2022-10-05T05:41:09.600Z,2.70
2022-10-05T05:43:56.130Z,2.70
2022-10-05T05:46:45.010Z,2.70
2022-10-05T05:49:23.205Z,2.40
2022-10-05T05:51:57.230Z,3.35
2022-10-05T05:54:35.046Z,2.67
2022-10-05T05:57:20.466Z,3.05
2022-10-05T06:00:09.727Z,3.15
2022-10-05T06:02:55.634Z,2.60
2022-10-05T06:05:48.960Z,2.97
2022-10-05T06:08:37.641Z,2.67
2022-10-05T06:11:31.205Z,2.85
2022-10-05T06:14:10.880Z,2.58
2022-10-05T06:16:47.507Z,2.75
2022-10-05T06:19:22.491Z,3.25
2022-10-05T06:22:23.337Z,2.72
2022-10-05T06:25:13.136Z,2.50
2022-10-05T06:27:59.711Z,2.60
2022-10-05T06:30:44.607Z,2.70
2022-10-05T06:36:01.601Z,3.05
2022-10-05T06:38:58.400Z,3.10
2022-10-05T06:41:41.745Z,3.20
2022-10-05T06:44:32.757Z,2.67
2022-10-05T06:47:45.607Z,2.92
2022-10-05T06:50:22.732Z,2.78
2022-10-05T06:53:03.336Z,2.90
2022-10-05T06:55:51.140Z,2.58
2022-10-05T06:58:33.731Z,3.47
2022-10-05T07:01:11.868Z,2.80
2022-10-05T07:04:00.280Z,3.05
2022-10-05T07:07:32.805Z,2.80
2022-10-05T07:10:29.076Z,3.75
2022-10-05T07:13:05.649Z,2.78
2022-10-05T07:15:51.687Z,3.10
2022-10-05T07:18:37.911Z,2.83
2022-10-05T07:21:36.647Z,2.75
2022-10-05T07:24:23.515Z,2.83
2022-10-05T07:27:14.715Z,2.95
2022-10-05T07:30:01.574Z,2.92
2022-10-05T07:33:06.371Z,3.47
2022-10-05T07:36:01.870Z,3.20
2022-10-05T07:38:57.925Z,3.10
2022-10-05T07:41:41.251Z,2.78
2022-10-05T07:44:21.128Z,3.03
2022-10-05T07:47:05.760Z,2.63
2022-10-05T07:49:49.203Z,3.10
2022-10-05T07:52:48.000Z,2.97
2022-10-05T07:55:33.922Z,3.00
2022-10-05T07:58:32.296Z,2.63
2022-10-05T08:01:24.377Z,3.00
2022-10-05T08:04:13.596Z,3.10
2022-10-05T08:06:50.541Z,3.25
2022-10-05T08:09:37.370Z,2.70
2022-10-05T08:12:20.911Z,3.40
2022-10-05T08:15:21.565Z,3.10
2022-10-05T08:18:01.289Z,2.85
2022-10-05T08:20:47.956Z,3.15
2022-10-05T08:23:27.203Z,2.78
2022-10-05T08:26:28.326Z,3.70
2022-10-05T08:29:12.822Z,3.20
2022-10-05T08:31:50.747Z,3.35
2022-10-05T08:34:27.841Z,2.85
2022-10-05T08:37:33.291Z,3.15
2022-10-05T08:40:31.954Z,3.00
2022-10-05T08:43:19.974Z,3.10
2022-10-05T08:46:01.838Z,3.22
2022-10-05T08:49:03.228Z,3.08
2022-10-05T08:51:50.047Z,3.13
2022-10-05T08:54:25.777Z,3.03
2022-10-05T08:57:05.607Z,3.08
2022-10-05T09:00:03.821Z,3.22
2022-10-05T09:02:59.120Z,3.10
2022-10-05T09:05:27.365Z,3.10
2022-10-05T09:08:22.561Z,2.92
2022-10-05T09:11:11.361Z,3.50
2022-10-05T09:13:54.719Z,3.33
2022-10-05T09:16:51.679Z,2.90
2022-10-05T09:19:38.323Z,4.00
2022-10-05T09:22:51.128Z,3.10
2022-10-05T09:25:19.500Z,3.83
2022-10-05T09:27:58.748Z,3.42
2022-10-05T09:30:33.925Z,3.00
2022-10-05T09:33:26.854Z,3.30
2022-10-05T09:36:37.417Z,3.03
2022-10-05T09:39:40.641Z,3.40
2022-10-05T09:42:25.175Z,3.17
2022-10-05T09:45:02.702Z,2.95
2022-10-05T09:48:00.776Z,3.17
2022-10-05T09:51:05.470Z,3.08
2022-10-05T09:53:53.905Z,3.17
2022-10-05T09:56:51.046Z,3.70
2022-10-05T09:59:49.040Z,3.20
2022-10-05T10:02:46.457Z,3.63
2022-10-05T10:05:35.672Z,3.33
2022-10-05T10:08:30.105Z,3.13
2022-10-05T10:11:18.881Z,3.10
2022-10-05T10:14:11.205Z,3.20
2022-10-05T10:17:08.005Z,3.00
2022-10-05T10:19:38.880Z,3.40
2022-10-05T10:22:31.771Z,3.95
2022-10-05T10:25:35.685Z,3.38
2022-10-05T10:28:34.498Z,3.20
2022-10-05T10:31:27.986Z,3.45
2022-10-05T10:34:29.875Z,3.33
2022-10-05T10:37:14.406Z,3.05
2022-10-05T10:40:07.588Z,3.05
2022-10-05T10:42:47.296Z,3.40
2022-10-05T10:45:38.880Z,2.90
2022-10-05T10:48:33.126Z,3.03
2022-10-05T10:51:07.515Z,3.30
2022-10-05T10:54:04.705Z,3.25
2022-10-05T10:57:09.915Z,3.78
2022-10-05T10:59:47.201Z,3.30
2022-10-05T11:02:33.883Z,3.60
2022-10-05T11:05:02.576Z,2.90
2022-10-05T11:07:36.488Z,3.45
2022-10-05T11:10:24.803Z,3.17
2022-10-05T11:13:34.356Z,3.13
2022-10-05T11:16:33.106Z,3.22
2022-10-05T11:19:13.607Z,3.28
2022-10-05T11:21:59.965Z,3.60
2022-10-05T11:24:40.326Z,3.42
2022-10-05T11:27:38.571Z,3.63
2022-10-05T11:30:39.527Z,3.50
2022-10-05T11:33:26.081Z,3.15
2022-10-05T11:36:24.291Z,3.70
2022-10-05T11:39:07.320Z,3.30
2022-10-05T11:41:42.180Z,3.55
2022-10-05T11:44:46.806Z,3.30
2022-10-05T11:47:18.026Z,3.75
2022-10-05T11:49:52.426Z,3.42
2022-10-05T11:52:49.081Z,3.53
2022-10-05T11:55:34.561Z,3.72
2022-10-05T11:58:24.320Z,3.40
2022-10-05T12:01:06.561Z,3.35
2022-10-05T12:04:06.505Z,3.60
2022-10-05T12:06:48.554Z,3.60
2022-10-05T12:10:11.699Z,3.42
2022-10-05T12:13:05.284Z,3.35
2022-10-05T12:15:42.746Z,3.40
2022-10-05T12:18:18.509Z,3.45
2022-10-05T12:20:52.966Z,2.97
2022-10-05T12:23:38.210Z,3.25
2022-10-05T12:26:13.601Z,3.42
2022-10-05T12:28:54.880Z,3.78
2022-10-05T12:31:32.372Z,3.10
2022-10-05T12:34:22.366Z,3.42
2022-10-05T12:37:05.045Z,3.53
2022-10-05T12:39:57.442Z,3.60
2022-10-05T12:42:31.201Z,3.10
2022-10-05T12:45:10.191Z,3.65
2022-10-05T12:47:49.228Z,3.47
2022-10-05T12:50:19.836Z,3.20
2022-10-05T12:53:08.485Z,3.22
2022-10-05T12:55:36.764Z,2.90
2022-10-05T12:58:30.103Z,3.40
2022-10-05T13:01:24.885Z,3.08
2022-10-05T13:04:01.930Z,2.58
2022-10-05T13:06:39.493Z,3.28
2022-10-05T13:09:13.445Z,3.50
2022-10-05T13:11:52.805Z,3.50
2022-10-05T13:14:44.376Z,2.90
2022-10-05T13:17:40.166Z,2.83
2022-10-05T13:20:36.961Z,3.40
2022-10-05T13:23:24.146Z,3.17
2022-10-05T13:26:02.713Z,3.38
2022-10-05T13:29:04.487Z,3.15
2022-10-05T13:31:43.740Z,2.63
2022-10-05T13:34:14.886Z,3.42
2022-10-05T13:36:43.045Z,2.90
2022-10-05T13:39:29.765Z,2.70
2022-10-05T13:42:16.785Z,3.03
2022-10-05T13:44:47.660Z,3.13
2022-10-05T13:47:30.885Z,2.97
2022-10-05T13:50:08.482Z,2.83
2022-10-05T13:53:11.370Z,2.67
2022-10-05T13:55:50.034Z,2.95
2022-10-05T13:58:37.570Z,2.92
2022-10-05T14:01:14.346Z,2.85
2022-10-05T14:04:02.880Z,2.83
2022-10-05T14:06:34.051Z,3.30
2022-10-05T14:09:02.551Z,3.25
2022-10-05T14:11:36.485Z,3.40
2022-10-05T14:14:26.410Z,3.80
2022-10-05T14:16:58.047Z,5.13
2022-10-05T14:19:27.812Z,4.80
2022-10-05T14:22:12.425Z,5.13
2022-10-05T14:25:03.821Z,4.70
2022-10-05T14:27:49.101Z,5.03
2022-10-05T14:30:17.443Z,5.18
2022-10-05T14:32:57.724Z,5.65
2022-10-05T14:35:44.764Z,5.65
2022-10-05T14:38:21.613Z,5.22
2022-10-05T14:41:07.151Z,5.50
2022-10-05T14:43:36.795Z,6.00
2022-10-05T14:46:28.478Z,5.43
2022-10-05T14:49:26.599Z,4.93
2022-10-05T14:51:56.906Z,6.07
2022-10-05T14:54:36.740Z,5.63
2022-10-05T14:57:11.162Z,5.45
2022-10-05T15:00:18.890Z,5.30
2022-10-05T15:02:58.885Z,5.60
2022-10-05T15:05:34.402Z,5.38
2022-10-05T15:09:09.146Z,5.93
2022-10-05T15:11:52.124Z,5.28
2022-10-05T15:14:33.286Z,5.78
2022-10-05T15:17:17.560Z,5.15
2022-10-05T15:19:54.890Z,5.82
2022-10-05T15:22:32.810Z,5.78
2022-10-05T15:25:18.250Z,5.60
2022-10-05T15:28:07.356Z,6.45
2022-10-05T15:30:48.212Z,6.40
2022-10-05T15:33:37.600Z,6.78
2022-10-05T15:36:39.090Z,6.72
2022-10-05T15:39:33.570Z,7.97
2022-10-05T15:42:39.230Z,8.20
2022-10-05T15:47:54.391Z,8.35
2022-10-05T15:50:46.534Z,9.27
2022-10-05T15:54:19.355Z,8.13
2022-10-05T15:56:58.874Z,8.82
2022-10-05T15:59:53.439Z,9.00
2022-10-05T16:02:34.290Z,9.70
2022-10-05T16:05:18.567Z,9.52
2022-10-05T16:08:13.283Z,10.70
2022-10-05T16:10:47.830Z,10.13
2022-10-05T16:13:46.700Z,11.30
2022-10-05T16:16:43.092Z,11.65
2022-10-05T16:19:25.902Z,10.52
2022-10-05T16:22:48.210Z,9.63
2022-10-05T16:25:29.124Z,9.98
2022-10-05T16:28:21.639Z,8.98
2022-10-05T16:31:13.356Z,8.57
2022-10-05T16:34:00.287Z,9.27
2022-10-05T16:36:46.824Z,8.30
2022-10-05T16:39:26.183Z,9.68
2022-10-05T16:42:23.400Z,10.02
2022-10-05T16:45:24.278Z,10.18
2022-10-05T16:48:21.014Z,9.55
2022-10-05T16:51:08.680Z,10.57
2022-10-05T16:53:48.644Z,10.43
2022-10-05T16:56:22.084Z,10.23
2022-10-05T16:59:08.314Z,11.52
2022-10-05T17:01:43.242Z,11.38
2022-10-05T17:04:29.602Z,10.48
2022-10-05T17:07:18.086Z,10.27
2022-10-05T17:09:51.990Z,13.70
2022-10-05T17:12:55.680Z,9.90
2022-10-05T17:16:01.571Z,11.88
2022-10-05T17:19:08.230Z,12.48
2022-10-05T17:22:05.945Z,11.05
2022-10-05T17:24:53.271Z,11.95
2022-10-05T17:27:54.100Z,11.82
2022-10-05T17:30:29.452Z,14.00
2022-10-05T17:33:05.421Z,12.15
2022-10-05T17:36:09.924Z,12.07
2022-10-05T17:38:51.630Z,11.75
2022-10-05T17:41:25.459Z,12.93
2022-10-05T17:44:16.969Z,11.82
2022-10-05T17:46:48.963Z,11.10
2022-10-05T17:50:15.462Z,11.60
2022-10-05T17:53:03.975Z,11.80
2022-10-05T17:55:35.200Z,11.40
2022-10-05T17:58:36.030Z,11.60
2022-10-05T18:01:25.945Z,10.80
2022-10-05T18:03:56.270Z,12.38
2022-10-05T18:06:29.195Z,11.98
2022-10-05T18:09:18.410Z,11.60
2022-10-05T18:12:07.864Z,10.57
2022-10-05T18:15:08.204Z,10.43
2022-10-05T18:17:47.150Z,10.82
2022-10-05T18:20:29.771Z,11.40
2022-10-05T18:23:10.591Z,11.23
2022-10-05T18:25:44.320Z,12.48
2022-10-05T18:28:15.242Z,10.52
2022-10-05T18:31:10.843Z,10.02
2022-10-05T18:33:50.910Z,8.77
2022-10-05T18:36:46.085Z,8.57
2022-10-05T18:42:03.210Z,8.55
2022-10-05T18:44:50.884Z,9.30
2022-10-05T18:48:07.672Z,9.75
2022-10-05T18:50:49.760Z,8.68
2022-10-05T18:53:45.926Z,8.43
2022-10-05T18:56:31.355Z,8.98
2022-10-05T18:59:19.438Z,7.90
2022-10-05T19:02:21.376Z,7.68
2022-10-05T19:04:52.460Z,7.80
2022-10-05T19:08:02.027Z,7.22
2022-10-05T19:10:42.245Z,6.30
2022-10-05T19:13:19.370Z,7.13
2022-10-05T19:16:13.209Z,7.50
2022-10-05T19:18:53.100Z,7.15
2022-10-05T19:21:40.496Z,7.03
2022-10-05T19:24:23.690Z,7.30
2022-10-05T19:27:35.956Z,7.13
2022-10-05T19:30:24.014Z,7.32
2022-10-05T19:33:01.396Z,6.75
2022-10-05T19:35:29.604Z,7.10
2022-10-05T19:38:15.402Z,6.22
2022-10-05T19:41:13.775Z,6.60
2022-10-05T19:43:56.651Z,6.43
2022-10-05T19:47:00.865Z,5.85
2022-10-05T19:49:53.852Z,6.38
2022-10-05T19:52:29.280Z,6.00
2022-10-05T19:55:14.895Z,6.07
2022-10-05T19:57:50.564Z,5.75
2022-10-05T20:00:32.119Z,5.32
2022-10-05T20:03:27.505Z,5.43
2022-10-05T20:06:03.469Z,4.80
2022-10-05T20:08:48.809Z,4.68
2022-10-05T20:11:22.688Z,5.15
2022-10-05T20:13:53.666Z,6.10
2022-10-05T20:16:47.363Z,5.32
2022-10-05T20:19:51.980Z,5.55
2022-10-05T20:22:47.199Z,6.32
2022-10-05T20:25:20.651Z,4.60
2022-10-05T20:27:51.684Z,5.07
2022-10-05T20:30:25.706Z,4.85
2022-10-05T20:33:00.485Z,4.90
2022-10-05T20:35:33.415Z,5.25
2022-10-05T20:38:01.921Z,5.45
2022-10-05T20:40:31.846Z,4.53
2022-10-05T20:43:00.166Z,4.20
2022-10-05T20:45:28.472Z,4.13
2022-10-05T20:47:56.827Z,4.53
2022-10-05T20:50:25.125Z,4.32
2022-10-05T20:52:53.715Z,3.88
2022-10-05T20:55:21.916Z,3.60
2022-10-05T20:57:50.111Z,3.38
2022-10-05T21:00:18.560Z,3.70
2022-10-05T21:02:47.851Z,3.70
2022-10-05T21:05:19.053Z,3.58
2022-10-05T21:07:47.820Z,3.80
2022-10-05T21:10:16.165Z,3.47
2022-10-05T21:12:44.686Z,3.17
2022-10-05T21:15:13.306Z,3.65
2022-10-05T21:17:41.600Z,3.33
2022-10-05T21:20:12.158Z,3.20
2022-10-05T21:22:40.439Z,2.97
2022-10-05T21:25:09.930Z,2.78
2022-10-05T21:27:38.176Z,2.63
2022-10-05T21:30:07.211Z,2.65
2022-10-05T21:32:36.870Z,2.78
2022-10-05T21:35:07.143Z,2.33
2022-10-05T21:37:35.465Z,2.17
2022-10-05T21:40:06.240Z,2.35
2022-10-05T21:42:34.599Z,2.40
2022-10-05T21:45:02.986Z,2.67
2022-10-05T21:47:31.715Z,3.30
2022-10-05T21:50:01.424Z,2.67
2022-10-05T21:52:29.715Z,2.55
2022-10-05T21:55:00.294Z,2.88
2022-10-05T21:57:28.645Z,2.75
2022-10-05T21:59:57.422Z,2.00
2022-10-05T22:02:25.763Z,2.20
2022-10-05T22:04:54.891Z,2.10
2022-10-05T22:07:23.206Z,1.92
2022-10-05T22:09:52.646Z,2.05
2022-10-05T22:12:21.401Z,2.13
2022-10-05T22:14:50.567Z,1.83
2022-10-05T22:17:30.500Z,1.95
2022-10-05T22:20:00.489Z,1.90
2022-10-05T22:22:29.924Z,2.20
2022-10-05T22:24:58.144Z,2.45
2022-10-05T22:27:29.279Z,2.03
2022-10-05T22:29:59.209Z,2.20
2022-10-05T22:32:27.950Z,1.98
2022-10-05T22:34:56.170Z,2.00
2022-10-05T22:37:25.132Z,1.70
2022-10-05T22:39:56.126Z,2.00
2022-10-05T22:42:24.480Z,1.65
2022-10-05T22:44:55.526Z,1.75
2022-10-05T22:47:23.850Z,1.70
2022-10-05T22:49:52.495Z,1.70
2022-10-05T22:52:20.811Z,1.83
2022-10-05T22:54:49.123Z,1.80
2022-10-05T22:57:17.569Z,1.70
2022-10-05T22:59:45.927Z,2.00
2022-10-05T23:02:15.002Z,2.00
2022-10-05T23:04:43.271Z,1.80
2022-10-05T23:07:11.555Z,2.13
2022-10-05T23:09:40.011Z,1.88
2022-10-05T23:12:08.321Z,1.80
2022-10-05T23:14:36.961Z,1.77
2022-10-05T23:17:05.625Z,2.00
2022-10-05T23:19:34.025Z,2.05
2022-10-05T23:22:03.371Z,2.10
2022-10-05T23:24:31.666Z,2.00
2022-10-05T23:27:00.011Z,2.00
2022-10-05T23:29:29.771Z,2.10
2022-10-05T23:31:58.090Z,1.90
2022-10-05T23:34:28.170Z,2.00
2022-10-05T23:36:56.496Z,1.83
2022-10-05T23:39:28.005Z,1.85
2022-10-05T23:41:56.315Z,2.05
2022-10-05T23:44:24.790Z,2.05
2022-10-05T23:46:53.134Z,1.88
2022-10-05T23:49:24.475Z,2.00
2022-10-05T23:51:52.806Z,2.10
2022-10-05T23:54:21.125Z,2.05
2022-10-05T23:56:49.438Z,1.70
2022-10-05T23:59:17.695Z,1.80
